sensor_id;sensor_type;location;lat;lon;timestamp;temperature;humidity
23499;DHT22;11926;48.120;11.562;2023-08-31T00:02:14;14.60;99.90
23499;DHT22;11926;48.120;11.562;2023-08-31T00:05:01;14.50;99.90
23499;DHT22;11926;48.120;11.562;2023-08-31T00:07:49;14.40;99.90
23499;DHT22;11926;48.120;11.562;2023-08-31T00:10:37;14.40;99.90
23499;DHT22;11926;48.120;11.562;2023-08-31T00:13:26;14.30;99.90
23499;DHT22;11926;48.120;11.562;2023-08-31T00:16:15;14.30;99.90
23499;DHT22;11926;48.120;11.562;2023-08-31T00:19:02;14.20;99.90
23499;DHT22;11926;48.120;11.562;2023-08-31T00:21:49;14.20;99.90
23499;DHT22;11926;48.120;11.562;2023-08-31T00:24:36;14.10;99.90
23499;DHT22;11926;48.120;11.562;2023-08-31T00:27:24;14.00;99.90
23499;DHT22;11926;48.120;11.562;2023-08-31T00:30:13;14.00;99.90
23499;DHT22;11926;48.120;11.562;2023-08-31T00:33:01;14.00;99.90
23499;DHT22;11926;48.120;11.562;2023-08-31T00:35:48;13.90;99.90
23499;DHT22;11926;48.120;11.562;2023-08-31T00:38:35;13.90;99.90
23499;DHT22;11926;48.120;11.562;2023-08-31T00:41:22;13.90;99.90
23499;DHT22;11926;48.120;11.562;2023-08-31T00:44:10;13.80;99.90
23499;DHT22;11926;48.120;11.562;2023-08-31T00:47:00;13.80;99.90
23499;DHT22;11926;48.120;11.562;2023-08-31T00:49:48;13.80;99.90
23499;DHT22;11926;48.120;11.562;2023-08-31T00:52:36;13.70;99.90
23499;DHT22;11926;48.120;11.562;2023-08-31T00:55:24;13.80;99.90
23499;DHT22;11926;48.120;11.562;2023-08-31T00:58:13;13.70;99.90
23499;DHT22;11926;48.120;11.562;2023-08-31T01:01:04;13.70;99.90
23499;DHT22;11926;48.120;11.562;2023-08-31T01:04:03;13.70;99.90
23499;DHT22;11926;48.120;11.562;2023-08-31T01:07:00;13.70;99.90
23499;DHT22;11926;48.120;11.562;2023-08-31T01:10:02;13.70;99.90
23499;DHT22;11926;48.120;11.562;2023-08-31T01:12:56;13.70;99.90
23499;DHT22;11926;48.120;11.562;2023-08-31T01:15:54;13.60;99.90
23499;DHT22;11926;48.120;11.562;2023-08-31T01:18:44;13.60;99.90
23499;DHT22;11926;48.120;11.562;2023-08-31T01:21:38;13.60;99.90
23499;DHT22;11926;48.120;11.562;2023-08-31T01:24:28;13.60;99.90
23499;DHT22;11926;48.120;11.562;2023-08-31T01:27:16;13.60;99.90
23499;DHT22;11926;48.120;11.562;2023-08-31T01:30:04;13.50;99.90
23499;DHT22;11926;48.120;11.562;2023-08-31T01:32:52;13.60;99.90
23499;DHT22;11926;48.120;11.562;2023-08-31T01:35:42;13.60;99.90
23499;DHT22;11926;48.120;11.562;2023-08-31T01:38:31;13.60;99.90
23499;DHT22;11926;48.120;11.562;2023-08-31T01:41:22;13.60;99.90
23499;DHT22;11926;48.120;11.562;2023-08-31T01:44:13;13.70;99.90
23499;DHT22;11926;48.120;11.562;2023-08-31T01:47:04;13.80;99.90
23499;DHT22;11926;48.120;11.562;2023-08-31T01:49:52;13.90;99.90
23499;DHT22;11926;48.120;11.562;2023-08-31T01:52:39;14.00;99.90
23499;DHT22;11926;48.120;11.562;2023-08-31T01:55:26;14.00;99.90
23499;DHT22;11926;48.120;11.562;2023-08-31T01:58:15;14.10;99.90
23499;DHT22;11926;48.120;11.562;2023-08-31T02:01:03;14.10;99.90
23499;DHT22;11926;48.120;11.562;2023-08-31T02:03:50;14.20;99.90
23499;DHT22;11926;48.120;11.562;2023-08-31T02:06:38;14.20;99.90
23499;DHT22;11926;48.120;11.562;2023-08-31T02:09:26;14.20;99.90
23499;DHT22;11926;48.120;11.562;2023-08-31T02:12:13;14.20;99.90
23499;DHT22;11926;48.120;11.562;2023-08-31T02:15:02;14.20;99.90
23499;DHT22;11926;48.120;11.562;2023-08-31T02:17:50;14.30;99.90
23499;DHT22;11926;48.120;11.562;2023-08-31T02:20:37;14.40;99.90
23499;DHT22;11926;48.120;11.562;2023-08-31T02:23:24;14.40;99.90
23499;DHT22;11926;48.120;11.562;2023-08-31T02:26:12;14.40;99.90
23499;DHT22;11926;48.120;11.562;2023-08-31T02:28:59;14.50;99.90
23499;DHT22;11926;48.120;11.562;2023-08-31T02:31:47;14.50;99.90
23499;DHT22;11926;48.120;11.562;2023-08-31T02:34:34;14.60;99.90
23499;DHT22;11926;48.120;11.562;2023-08-31T02:37:24;14.60;99.90
23499;DHT22;11926;48.120;11.562;2023-08-31T02:40:11;14.50;99.90
23499;DHT22;11926;48.120;11.562;2023-08-31T02:42:59;14.60;99.90
23499;DHT22;11926;48.120;11.562;2023-08-31T02:45:46;14.50;99.90
23499;DHT22;11926;48.120;11.562;2023-08-31T02:48:35;14.50;99.90
23499;DHT22;11926;48.120;11.562;2023-08-31T02:51:22;14.50;99.90
23499;DHT22;11926;48.120;11.562;2023-08-31T02:54:09;14.50;99.90
23499;DHT22;11926;48.120;11.562;2023-08-31T02:56:56;14.50;99.90
23499;DHT22;11926;48.120;11.562;2023-08-31T02:59:43;14.50;99.90
23499;DHT22;11926;48.120;11.562;2023-08-31T03:02:32;14.50;99.90
23499;DHT22;11926;48.120;11.562;2023-08-31T03:05:22;14.50;99.90
23499;DHT22;11926;48.120;11.562;2023-08-31T03:08:10;14.50;99.90
23499;DHT22;11926;48.120;11.562;2023-08-31T03:10:57;14.50;99.90
23499;DHT22;11926;48.120;11.562;2023-08-31T03:13:44;14.50;99.90
23499;DHT22;11926;48.120;11.562;2023-08-31T03:16:32;14.50;99.90
23499;DHT22;11926;48.120;11.562;2023-08-31T03:19:21;14.50;99.90
23499;DHT22;11926;48.120;11.562;2023-08-31T03:22:10;14.50;99.90
23499;DHT22;11926;48.120;11.562;2023-08-31T03:24:57;14.50;99.90
23499;DHT22;11926;48.120;11.562;2023-08-31T03:27:44;14.60;99.90
23499;DHT22;11926;48.120;11.562;2023-08-31T03:30:32;14.60;99.90
23499;DHT22;11926;48.120;11.562;2023-08-31T03:33:19;14.50;99.90
23499;DHT22;11926;48.120;11.562;2023-08-31T03:36:07;14.50;99.90
23499;DHT22;11926;48.120;11.562;2023-08-31T03:38:56;14.50;99.90
23499;DHT22;11926;48.120;11.562;2023-08-31T03:41:43;14.40;99.90
23499;DHT22;11926;48.120;11.562;2023-08-31T03:44:31;14.40;99.90
23499;DHT22;11926;48.120;11.562;2023-08-31T03:47:18;14.40;99.90
23499;DHT22;11926;48.120;11.562;2023-08-31T03:50:06;14.40;99.90
23499;DHT22;11926;48.120;11.562;2023-08-31T03:52:54;14.40;99.90
23499;DHT22;11926;48.120;11.562;2023-08-31T03:55:43;14.40;99.90
23499;DHT22;11926;48.120;11.562;2023-08-31T03:58:32;14.30;99.90
23499;DHT22;11926;48.120;11.562;2023-08-31T04:01:19;14.30;99.90
23499;DHT22;11926;48.120;11.562;2023-08-31T04:04:07;14.30;99.90
23499;DHT22;11926;48.120;11.562;2023-08-31T04:06:55;14.30;99.90
23499;DHT22;11926;48.120;11.562;2023-08-31T04:09:42;14.30;99.90
23499;DHT22;11926;48.120;11.562;2023-08-31T04:12:31;14.30;99.90
23499;DHT22;11926;48.120;11.562;2023-08-31T04:15:19;14.30;99.90
23499;DHT22;11926;48.120;11.562;2023-08-31T04:18:06;14.30;99.90
23499;DHT22;11926;48.120;11.562;2023-08-31T04:20:54;14.30;99.90
23499;DHT22;11926;48.120;11.562;2023-08-31T04:23:45;14.30;99.90
23499;DHT22;11926;48.120;11.562;2023-08-31T04:26:32;14.30;99.90
23499;DHT22;11926;48.120;11.562;2023-08-31T04:29:21;14.40;99.90
23499;DHT22;11926;48.120;11.562;2023-08-31T04:32:08;14.30;99.90
23499;DHT22;11926;48.120;11.562;2023-08-31T04:34:55;14.30;99.90
23499;DHT22;11926;48.120;11.562;2023-08-31T04:37:43;14.30;99.90
23499;DHT22;11926;48.120;11.562;2023-08-31T04:40:32;14.30;99.90
23499;DHT22;11926;48.120;11.562;2023-08-31T04:43:20;14.30;99.90
23499;DHT22;11926;48.120;11.562;2023-08-31T04:46:08;14.30;99.90
23499;DHT22;11926;48.120;11.562;2023-08-31T04:48:56;14.30;99.90
23499;DHT22;11926;48.120;11.562;2023-08-31T04:51:44;14.20;99.90
23499;DHT22;11926;48.120;11.562;2023-08-31T04:54:32;14.20;99.90
23499;DHT22;11926;48.120;11.562;2023-08-31T04:57:19;14.20;99.90
23499;DHT22;11926;48.120;11.562;2023-08-31T05:00:07;14.20;99.90
23499;DHT22;11926;48.120;11.562;2023-08-31T05:02:57;14.20;99.90
23499;DHT22;11926;48.120;11.562;2023-08-31T05:05:44;14.20;99.90
23499;DHT22;11926;48.120;11.562;2023-08-31T05:08:32;14.30;99.90
23499;DHT22;11926;48.120;11.562;2023-08-31T05:11:19;14.30;99.90
23499;DHT22;11926;48.120;11.562;2023-08-31T05:14:06;14.40;99.90
23499;DHT22;11926;48.120;11.562;2023-08-31T05:16:53;14.40;99.90
23499;DHT22;11926;48.120;11.562;2023-08-31T05:19:41;14.50;99.90
23499;DHT22;11926;48.120;11.562;2023-08-31T05:22:29;14.60;99.90
23499;DHT22;11926;48.120;11.562;2023-08-31T05:25:16;14.60;99.90
23499;DHT22;11926;48.120;11.562;2023-08-31T05:28:04;14.60;99.90
23499;DHT22;11926;48.120;11.562;2023-08-31T05:30:53;14.70;99.90
23499;DHT22;11926;48.120;11.562;2023-08-31T05:33:40;14.70;99.90
23499;DHT22;11926;48.120;11.562;2023-08-31T05:36:29;14.70;99.90
23499;DHT22;11926;48.120;11.562;2023-08-31T05:39:16;14.70;99.90
23499;DHT22;11926;48.120;11.562;2023-08-31T05:42:06;14.70;99.90
23499;DHT22;11926;48.120;11.562;2023-08-31T05:44:53;14.70;99.90
23499;DHT22;11926;48.120;11.562;2023-08-31T05:47:41;14.80;99.90
23499;DHT22;11926;48.120;11.562;2023-08-31T05:50:28;14.90;99.90
23499;DHT22;11926;48.120;11.562;2023-08-31T05:53:16;15.00;99.90
23499;DHT22;11926;48.120;11.562;2023-08-31T05:56:04;15.10;99.90
23499;DHT22;11926;48.120;11.562;2023-08-31T05:58:53;15.10;99.90
23499;DHT22;11926;48.120;11.562;2023-08-31T06:01:42;15.10;99.90
23499;DHT22;11926;48.120;11.562;2023-08-31T06:04:30;15.20;99.90
23499;DHT22;11926;48.120;11.562;2023-08-31T06:07:17;15.20;99.90
23499;DHT22;11926;48.120;11.562;2023-08-31T06:10:07;15.20;99.90
23499;DHT22;11926;48.120;11.562;2023-08-31T06:12:54;15.30;99.90
23499;DHT22;11926;48.120;11.562;2023-08-31T06:15:41;15.40;99.90
23499;DHT22;11926;48.120;11.562;2023-08-31T06:18:30;15.50;99.90
23499;DHT22;11926;48.120;11.562;2023-08-31T06:21:17;15.60;99.90
23499;DHT22;11926;48.120;11.562;2023-08-31T06:24:06;15.70;99.90
23499;DHT22;11926;48.120;11.562;2023-08-31T06:26:57;15.80;99.90
23499;DHT22;11926;48.120;11.562;2023-08-31T06:29:44;15.80;99.90
23499;DHT22;11926;48.120;11.562;2023-08-31T06:32:31;15.90;99.90
23499;DHT22;11926;48.120;11.562;2023-08-31T06:35:20;15.90;99.90
23499;DHT22;11926;48.120;11.562;2023-08-31T06:38:07;15.90;99.90
23499;DHT22;11926;48.120;11.562;2023-08-31T06:40:54;16.00;99.90
23499;DHT22;11926;48.120;11.562;2023-08-31T06:43:46;16.00;99.90
23499;DHT22;11926;48.120;11.562;2023-08-31T06:46:34;16.10;99.90
23499;DHT22;11926;48.120;11.562;2023-08-31T06:49:24;16.10;99.90
23499;DHT22;11926;48.120;11.562;2023-08-31T06:52:11;16.10;99.90
23499;DHT22;11926;48.120;11.562;2023-08-31T06:55:15;16.10;99.90
23499;DHT22;11926;48.120;11.562;2023-08-31T06:58:03;16.20;99.90
23499;DHT22;11926;48.120;11.562;2023-08-31T07:00:53;16.20;99.90
23499;DHT22;11926;48.120;11.562;2023-08-31T07:03:40;16.20;99.90
23499;DHT22;11926;48.120;11.562;2023-08-31T07:06:27;16.20;99.90
23499;DHT22;11926;48.120;11.562;2023-08-31T07:09:14;16.20;99.90
23499;DHT22;11926;48.120;11.562;2023-08-31T07:12:02;16.20;99.90
23499;DHT22;11926;48.120;11.562;2023-08-31T07:14:50;16.30;99.90
23499;DHT22;11926;48.120;11.562;2023-08-31T07:17:38;16.30;99.90
23499;DHT22;11926;48.120;11.562;2023-08-31T07:20:26;16.30;99.90
23499;DHT22;11926;48.120;11.562;2023-08-31T07:23:13;16.40;99.90
23499;DHT22;11926;48.120;11.562;2023-08-31T07:26:01;16.40;99.90
23499;DHT22;11926;48.120;11.562;2023-08-31T07:28:50;16.50;99.90
23499;DHT22;11926;48.120;11.562;2023-08-31T07:31:38;16.70;99.90
23499;DHT22;11926;48.120;11.562;2023-08-31T07:34:26;16.80;99.90
23499;DHT22;11926;48.120;11.562;2023-08-31T07:37:14;17.00;99.90
23499;DHT22;11926;48.120;11.562;2023-08-31T07:40:01;17.10;99.90
23499;DHT22;11926;48.120;11.562;2023-08-31T07:42:53;17.10;99.90
23499;DHT22;11926;48.120;11.562;2023-08-31T07:45:41;17.20;99.90
23499;DHT22;11926;48.120;11.562;2023-08-31T07:48:28;17.20;99.90
23499;DHT22;11926;48.120;11.562;2023-08-31T07:51:16;17.20;99.90
23499;DHT22;11926;48.120;11.562;2023-08-31T07:54:08;17.20;99.90
23499;DHT22;11926;48.120;11.562;2023-08-31T07:56:56;17.30;99.90
23499;DHT22;11926;48.120;11.562;2023-08-31T07:59:43;17.30;99.90
23499;DHT22;11926;48.120;11.562;2023-08-31T08:02:30;17.60;99.90
23499;DHT22;11926;48.120;11.562;2023-08-31T08:05:17;17.90;99.90
23499;DHT22;11926;48.120;11.562;2023-08-31T08:08:06;18.20;99.40
23499;DHT22;11926;48.120;11.562;2023-08-31T08:10:54;18.50;98.30
23499;DHT22;11926;48.120;11.562;2023-08-31T08:13:41;18.70;97.60
23499;DHT22;11926;48.120;11.562;2023-08-31T08:16:29;18.70;97.10
23499;DHT22;11926;48.120;11.562;2023-08-31T08:19:21;18.80;96.60
23499;DHT22;11926;48.120;11.562;2023-08-31T08:22:09;19.00;96.30
23499;DHT22;11926;48.120;11.562;2023-08-31T08:24:58;19.00;95.70
23499;DHT22;11926;48.120;11.562;2023-08-31T08:27:45;18.90;94.90
23499;DHT22;11926;48.120;11.562;2023-08-31T08:30:32;18.80;95.10
23499;DHT22;11926;48.120;11.562;2023-08-31T08:33:20;18.60;95.20
23499;DHT22;11926;48.120;11.562;2023-08-31T08:36:07;18.50;95.30
23499;DHT22;11926;48.120;11.562;2023-08-31T08:38:58;18.40;95.70
23499;DHT22;11926;48.120;11.562;2023-08-31T08:41:47;18.30;95.70
23499;DHT22;11926;48.120;11.562;2023-08-31T08:44:36;18.20;95.80
23499;DHT22;11926;48.120;11.562;2023-08-31T08:47:25;18.30;96.00
23499;DHT22;11926;48.120;11.562;2023-08-31T08:50:13;18.30;96.10
23499;DHT22;11926;48.120;11.562;2023-08-31T08:53:01;18.40;95.40
23499;DHT22;11926;48.120;11.562;2023-08-31T08:55:49;18.40;95.60
23499;DHT22;11926;48.120;11.562;2023-08-31T08:58:38;19.10;95.30
23499;DHT22;11926;48.120;11.562;2023-08-31T09:01:26;20.40;94.20
23499;DHT22;11926;48.120;11.562;2023-08-31T09:04:14;21.20;91.10
23499;DHT22;11926;48.120;11.562;2023-08-31T09:07:03;21.30;89.90
23499;DHT22;11926;48.120;11.562;2023-08-31T09:09:51;21.20;89.50
23499;DHT22;11926;48.120;11.562;2023-08-31T09:12:38;21.00;87.80
23499;DHT22;11926;48.120;11.562;2023-08-31T09:15:36;20.80;87.20
23499;DHT22;11926;48.120;11.562;2023-08-31T09:18:25;20.50;87.80
23499;DHT22;11926;48.120;11.562;2023-08-31T09:21:13;20.20;87.80
23499;DHT22;11926;48.120;11.562;2023-08-31T09:24:00;20.00;89.00
23499;DHT22;11926;48.120;11.562;2023-08-31T09:26:52;19.90;89.00
23499;DHT22;11926;48.120;11.562;2023-08-31T09:29:45;19.80;89.00
23499;DHT22;11926;48.120;11.562;2023-08-31T09:32:35;19.70;89.20
23499;DHT22;11926;48.120;11.562;2023-08-31T09:35:23;19.70;89.70
23499;DHT22;11926;48.120;11.562;2023-08-31T09:38:14;20.00;89.20
23499;DHT22;11926;48.120;11.562;2023-08-31T09:41:20;20.20;89.00
23499;DHT22;11926;48.120;11.562;2023-08-31T09:44:18;20.40;87.10
23499;DHT22;11926;48.120;11.562;2023-08-31T09:47:09;20.50;85.80
23499;DHT22;11926;48.120;11.562;2023-08-31T09:49:58;20.70;85.40
23499;DHT22;11926;48.120;11.562;2023-08-31T09:52:47;20.90;84.50
23499;DHT22;11926;48.120;11.562;2023-08-31T09:55:36;21.10;83.80
23499;DHT22;11926;48.120;11.562;2023-08-31T09:58:25;21.20;82.80
23499;DHT22;11926;48.120;11.562;2023-08-31T10:01:13;21.00;81.70
23499;DHT22;11926;48.120;11.562;2023-08-31T10:04:14;20.80;81.90
23499;DHT22;11926;48.120;11.562;2023-08-31T10:07:04;20.60;82.70
23499;DHT22;11926;48.120;11.562;2023-08-31T10:09:53;20.50;83.30
23499;DHT22;11926;48.120;11.562;2023-08-31T10:12:41;20.40;83.80
23499;DHT22;11926;48.120;11.562;2023-08-31T10:15:32;20.40;84.10
23499;DHT22;11926;48.120;11.562;2023-08-31T10:18:20;20.40;84.00
23499;DHT22;11926;48.120;11.562;2023-08-31T10:21:08;20.30;83.30
23499;DHT22;11926;48.120;11.562;2023-08-31T10:23:57;20.60;84.80
23499;DHT22;11926;48.120;11.562;2023-08-31T10:26:44;21.00;82.80
23499;DHT22;11926;48.120;11.562;2023-08-31T10:29:32;21.00;82.70
23499;DHT22;11926;48.120;11.562;2023-08-31T10:32:20;21.10;81.80
23499;DHT22;11926;48.120;11.562;2023-08-31T10:35:09;21.00;81.30
23499;DHT22;11926;48.120;11.562;2023-08-31T10:38:15;20.90;82.00
23499;DHT22;11926;48.120;11.562;2023-08-31T10:41:22;20.80;81.50
23499;DHT22;11926;48.120;11.562;2023-08-31T10:44:19;20.60;81.80
23499;DHT22;11926;48.120;11.562;2023-08-31T10:47:08;20.40;82.10
23499;DHT22;11926;48.120;11.562;2023-08-31T10:49:55;20.20;82.70
23499;DHT22;11926;48.120;11.562;2023-08-31T10:52:45;20.20;82.60
23499;DHT22;11926;48.120;11.562;2023-08-31T10:55:33;20.00;83.30
23499;DHT22;11926;48.120;11.562;2023-08-31T10:58:21;19.90;83.00
23499;DHT22;11926;48.120;11.562;2023-08-31T11:01:52;19.80;83.40
23499;DHT22;11926;48.120;11.562;2023-08-31T11:04:53;19.80;83.40
23499;DHT22;11926;48.120;11.562;2023-08-31T11:07:43;19.80;83.90
23499;DHT22;11926;48.120;11.562;2023-08-31T11:10:30;19.80;83.60
23499;DHT22;11926;48.120;11.562;2023-08-31T11:13:20;19.80;84.20
23499;DHT22;11926;48.120;11.562;2023-08-31T11:16:08;19.80;84.60
23499;DHT22;11926;48.120;11.562;2023-08-31T11:18:56;19.80;84.70
23499;DHT22;11926;48.120;11.562;2023-08-31T11:21:43;19.70;83.50
23499;DHT22;11926;48.120;11.562;2023-08-31T11:24:31;19.60;83.50
23499;DHT22;11926;48.120;11.562;2023-08-31T11:27:19;19.40;83.50
23499;DHT22;11926;48.120;11.562;2023-08-31T11:30:14;19.30;84.00
23499;DHT22;11926;48.120;11.562;2023-08-31T11:33:03;19.20;85.70
23499;DHT22;11926;48.120;11.562;2023-08-31T11:35:50;19.20;85.90
23499;DHT22;11926;48.120;11.562;2023-08-31T11:38:38;19.30;85.50
23499;DHT22;11926;48.120;11.562;2023-08-31T11:41:25;19.40;84.90
23499;DHT22;11926;48.120;11.562;2023-08-31T11:44:17;19.70;85.10
23499;DHT22;11926;48.120;11.562;2023-08-31T11:47:06;19.90;83.80
23499;DHT22;11926;48.120;11.562;2023-08-31T11:49:53;20.10;83.10
23499;DHT22;11926;48.120;11.562;2023-08-31T11:52:41;20.30;82.50
23499;DHT22;11926;48.120;11.562;2023-08-31T11:55:29;20.50;82.50
23499;DHT22;11926;48.120;11.562;2023-08-31T11:58:17;20.60;82.10
23499;DHT22;11926;48.120;11.562;2023-08-31T12:01:04;20.80;80.80
23499;DHT22;11926;48.120;11.562;2023-08-31T12:03:54;21.00;80.50
23499;DHT22;11926;48.120;11.562;2023-08-31T12:06:42;21.10;80.00
23499;DHT22;11926;48.120;11.562;2023-08-31T12:09:33;21.10;79.30
23499;DHT22;11926;48.120;11.562;2023-08-31T12:12:22;21.00;78.70
23499;DHT22;11926;48.120;11.562;2023-08-31T12:15:11;20.90;79.20
23499;DHT22;11926;48.120;11.562;2023-08-31T12:17:58;20.90;79.60
23499;DHT22;11926;48.120;11.562;2023-08-31T12:20:50;20.90;78.60
23499;DHT22;11926;48.120;11.562;2023-08-31T12:23:38;20.90;79.40
23499;DHT22;11926;48.120;11.562;2023-08-31T12:26:25;21.00;79.70
23499;DHT22;11926;48.120;11.562;2023-08-31T12:29:13;21.10;79.20
23499;DHT22;11926;48.120;11.562;2023-08-31T12:32:01;21.20;77.70
23499;DHT22;11926;48.120;11.562;2023-08-31T12:34:48;21.20;77.80
23499;DHT22;11926;48.120;11.562;2023-08-31T12:37:37;21.40;78.20
23499;DHT22;11926;48.120;11.562;2023-08-31T12:40:24;21.60;77.80
23499;DHT22;11926;48.120;11.562;2023-08-31T12:43:11;21.80;76.80
23499;DHT22;11926;48.120;11.562;2023-08-31T12:45:59;21.90;76.20
23499;DHT22;11926;48.120;11.562;2023-08-31T12:48:46;21.90;74.80
23499;DHT22;11926;48.120;11.562;2023-08-31T12:51:36;22.00;74.50
23499;DHT22;11926;48.120;11.562;2023-08-31T12:54:25;22.20;73.90
23499;DHT22;11926;48.120;11.562;2023-08-31T12:57:12;22.20;73.00
23499;DHT22;11926;48.120;11.562;2023-08-31T13:00:00;22.30;73.30
23499;DHT22;11926;48.120;11.562;2023-08-31T13:02:48;22.40;72.70
23499;DHT22;11926;48.120;11.562;2023-08-31T13:05:39;22.60;72.20
23499;DHT22;11926;48.120;11.562;2023-08-31T13:08:27;22.60;71.70
23499;DHT22;11926;48.120;11.562;2023-08-31T13:11:16;22.70;72.10
23499;DHT22;11926;48.120;11.562;2023-08-31T13:14:09;22.70;71.60
23499;DHT22;11926;48.120;11.562;2023-08-31T13:16:56;22.50;71.00
23499;DHT22;11926;48.120;11.562;2023-08-31T13:19:44;22.40;71.20
23499;DHT22;11926;48.120;11.562;2023-08-31T13:22:31;22.60;72.70
23499;DHT22;11926;48.120;11.562;2023-08-31T13:25:19;22.70;72.30
23499;DHT22;11926;48.120;11.562;2023-08-31T13:28:08;22.90;71.20
23499;DHT22;11926;48.120;11.562;2023-08-31T13:30:57;23.00;70.40
23499;DHT22;11926;48.120;11.562;2023-08-31T13:33:46;23.20;69.20
23499;DHT22;11926;48.120;11.562;2023-08-31T13:36:34;23.20;69.90
23499;DHT22;11926;48.120;11.562;2023-08-31T13:39:21;23.10;68.10
23499;DHT22;11926;48.120;11.562;2023-08-31T13:42:09;23.10;67.80
23499;DHT22;11926;48.120;11.562;2023-08-31T13:44:58;23.10;68.20
23499;DHT22;11926;48.120;11.562;2023-08-31T13:47:45;23.10;68.40
23499;DHT22;11926;48.120;11.562;2023-08-31T13:50:34;23.10;68.10
23499;DHT22;11926;48.120;11.562;2023-08-31T13:53:21;23.30;68.40
23499;DHT22;11926;48.120;11.562;2023-08-31T13:56:09;23.30;66.50
23499;DHT22;11926;48.120;11.562;2023-08-31T13:58:56;23.40;66.50
23499;DHT22;11926;48.120;11.562;2023-08-31T14:01:46;23.40;65.30
23499;DHT22;11926;48.120;11.562;2023-08-31T14:04:33;23.30;64.60
23499;DHT22;11926;48.120;11.562;2023-08-31T14:07:21;23.20;66.00
23499;DHT22;11926;48.120;11.562;2023-08-31T14:10:09;23.10;66.80
23499;DHT22;11926;48.120;11.562;2023-08-31T14:12:56;23.20;65.70
23499;DHT22;11926;48.120;11.562;2023-08-31T14:15:46;23.10;65.90
23499;DHT22;11926;48.120;11.562;2023-08-31T14:18:35;23.00;65.30
23499;DHT22;11926;48.120;11.562;2023-08-31T14:21:22;22.90;64.60
23499;DHT22;11926;48.120;11.562;2023-08-31T14:24:10;22.70;64.40
23499;DHT22;11926;48.120;11.562;2023-08-31T14:26:57;22.60;65.10
23499;DHT22;11926;48.120;11.562;2023-08-31T14:29:44;22.40;65.10
23499;DHT22;11926;48.120;11.562;2023-08-31T14:32:32;22.30;65.80
23499;DHT22;11926;48.120;11.562;2023-08-31T14:35:24;22.20;65.60
23499;DHT22;11926;48.120;11.562;2023-08-31T14:38:11;22.20;65.00
23499;DHT22;11926;48.120;11.562;2023-08-31T14:40:59;22.20;65.40
23499;DHT22;11926;48.120;11.562;2023-08-31T14:43:46;22.10;64.80
23499;DHT22;11926;48.120;11.562;2023-08-31T14:46:33;22.10;64.90
23499;DHT22;11926;48.120;11.562;2023-08-31T14:49:22;22.10;65.90
23499;DHT22;11926;48.120;11.562;2023-08-31T14:52:12;22.10;66.00
23499;DHT22;11926;48.120;11.562;2023-08-31T14:55:00;22.00;65.60
23499;DHT22;11926;48.120;11.562;2023-08-31T14:57:49;21.90;65.60
23499;DHT22;11926;48.120;11.562;2023-08-31T15:00:36;21.90;66.10
23499;DHT22;11926;48.120;11.562;2023-08-31T15:03:23;21.80;67.10
23499;DHT22;11926;48.120;11.562;2023-08-31T15:06:11;21.80;66.50
23499;DHT22;11926;48.120;11.562;2023-08-31T15:09:00;21.70;66.20
23499;DHT22;11926;48.120;11.562;2023-08-31T15:11:47;21.70;67.90
23499;DHT22;11926;48.120;11.562;2023-08-31T15:14:35;21.70;66.90
23499;DHT22;11926;48.120;11.562;2023-08-31T15:17:24;21.70;66.50
23499;DHT22;11926;48.120;11.562;2023-08-31T15:20:11;21.60;66.60
23499;DHT22;11926;48.120;11.562;2023-08-31T15:22:59;21.60;67.70
23499;DHT22;11926;48.120;11.562;2023-08-31T15:25:48;21.60;66.90
23499;DHT22;11926;48.120;11.562;2023-08-31T15:28:35;21.60;68.20
23499;DHT22;11926;48.120;11.562;2023-08-31T15:31:22;21.50;68.30
23499;DHT22;11926;48.120;11.562;2023-08-31T15:34:10;21.40;68.80
23499;DHT22;11926;48.120;11.562;2023-08-31T15:36:57;21.40;67.70
23499;DHT22;11926;48.120;11.562;2023-08-31T15:39:44;21.30;68.10
23499;DHT22;11926;48.120;11.562;2023-08-31T15:42:33;21.20;67.90
23499;DHT22;11926;48.120;11.562;2023-08-31T15:45:21;21.20;68.20
23499;DHT22;11926;48.120;11.562;2023-08-31T15:48:09;21.20;68.30
23499;DHT22;11926;48.120;11.562;2023-08-31T15:50:57;21.20;68.70
23499;DHT22;11926;48.120;11.562;2023-08-31T15:53:44;21.20;68.90
23499;DHT22;11926;48.120;11.562;2023-08-31T15:56:32;21.10;69.60
23499;DHT22;11926;48.120;11.562;2023-08-31T15:59:20;21.10;69.30
23499;DHT22;11926;48.120;11.562;2023-08-31T16:02:07;21.00;68.70
23499;DHT22;11926;48.120;11.562;2023-08-31T16:04:55;21.00;68.90
23499;DHT22;11926;48.120;11.562;2023-08-31T16:07:42;20.90;69.60
23499;DHT22;11926;48.120;11.562;2023-08-31T16:10:30;20.90;70.40
23499;DHT22;11926;48.120;11.562;2023-08-31T16:13:18;20.90;70.40
23499;DHT22;11926;48.120;11.562;2023-08-31T16:16:07;20.90;70.20
23499;DHT22;11926;48.120;11.562;2023-08-31T16:18:54;21.00;70.60
23499;DHT22;11926;48.120;11.562;2023-08-31T16:21:41;21.00;70.80
23499;DHT22;11926;48.120;11.562;2023-08-31T16:24:29;20.90;70.60
23499;DHT22;11926;48.120;11.562;2023-08-31T16:27:17;20.90;70.60
23499;DHT22;11926;48.120;11.562;2023-08-31T16:30:06;20.80;70.80
23499;DHT22;11926;48.120;11.562;2023-08-31T16:32:57;20.80;71.00
23499;DHT22;11926;48.120;11.562;2023-08-31T16:35:44;20.60;71.20
23499;DHT22;11926;48.120;11.562;2023-08-31T16:38:34;20.60;71.80
23499;DHT22;11926;48.120;11.562;2023-08-31T16:41:21;20.50;72.10
23499;DHT22;11926;48.120;11.562;2023-08-31T16:44:09;20.50;72.20
23499;DHT22;11926;48.120;11.562;2023-08-31T16:46:57;20.50;73.80
23499;DHT22;11926;48.120;11.562;2023-08-31T16:49:45;20.50;73.00
23499;DHT22;11926;48.120;11.562;2023-08-31T16:52:33;20.40;73.00
23499;DHT22;11926;48.120;11.562;2023-08-31T16:55:20;20.40;73.60
23499;DHT22;11926;48.120;11.562;2023-08-31T16:58:08;20.40;74.20
23499;DHT22;11926;48.120;11.562;2023-08-31T17:00:55;20.30;73.60
23499;DHT22;11926;48.120;11.562;2023-08-31T17:03:42;20.20;73.40
23499;DHT22;11926;48.120;11.562;2023-08-31T17:06:31;20.20;74.40
23499;DHT22;11926;48.120;11.562;2023-08-31T17:09:18;20.20;74.50
23499;DHT22;11926;48.120;11.562;2023-08-31T17:12:07;20.20;75.10
23499;DHT22;11926;48.120;11.562;2023-08-31T17:14:54;20.20;75.30
23499;DHT22;11926;48.120;11.562;2023-08-31T17:17:41;20.10;76.60
23499;DHT22;11926;48.120;11.562;2023-08-31T17:20:34;20.10;76.50
23499;DHT22;11926;48.120;11.562;2023-08-31T17:23:26;20.00;77.30
23499;DHT22;11926;48.120;11.562;2023-08-31T17:26:20;19.90;77.60
23499;DHT22;11926;48.120;11.562;2023-08-31T17:29:08;19.80;78.10